createdAt,value
2017-12-19T00:00:47.402Z,168.83
2017-12-19T00:03:14.901Z,140.60
2017-12-19T00:05:43.105Z,123.07
2017-12-19T00:08:10.532Z,149.23
2017-12-19T00:10:39.065Z,132.97
2017-12-19T00:13:06.492Z,135.47
2017-12-19T00:15:33.921Z,129.43
2017-12-19T00:18:02.120Z,99.77
2017-12-19T00:20:29.552Z,100.40
2017-12-19T00:22:57.753Z,113.20
2017-12-19T00:25:25.446Z,114.70
2017-12-19T00:27:52.904Z,123.87
2017-12-19T00:30:20.335Z,134.87
2017-12-19T00:32:47.780Z,166.47
2017-12-19T00:35:15.224Z,159.27
2017-12-19T00:37:42.650Z,117.20
2017-12-19T00:40:10.106Z,111.97
2017-12-19T00:42:37.535Z,143.07
2017-12-19T00:45:04.961Z,151.27
2017-12-19T00:47:33.172Z,153.33
2017-12-19T00:50:00.601Z,159.93
2017-12-19T00:52:28.040Z,130.83
2017-12-19T00:54:56.249Z,137.73
2017-12-19T00:57:23.680Z,124.30
2017-12-19T00:59:51.873Z,135.70
2017-12-19T01:02:19.601Z,114.70
2017-12-19T01:04:47.806Z,112.50
2017-12-19T01:07:15.231Z,134.50
2017-12-19T01:09:42.672Z,108.97
2017-12-19T01:12:10.104Z,120.37
2017-12-19T01:14:38.298Z,98.87
2017-12-19T01:17:05.754Z,115.33
2017-12-19T01:19:33.177Z,100.10
2017-12-19T01:22:00.610Z,81.63
2017-12-19T01:24:28.048Z,88.97
2017-12-19T01:26:55.490Z,64.20
2017-12-19T01:29:22.917Z,78.73
2017-12-19T01:31:51.126Z,62.90
2017-12-19T01:34:18.545Z,89.03
2017-12-19T01:36:46.743Z,68.00
2017-12-19T01:39:14.259Z,69.13
2017-12-19T01:41:41.672Z,101.60
2017-12-19T01:44:09.097Z,75.77
2017-12-19T01:46:37.569Z,74.73
2017-12-19T01:49:05.760Z,80.27
2017-12-19T01:51:33.186Z,74.47
2017-12-19T01:54:00.625Z,93.43
2017-12-19T01:56:28.089Z,69.40
2017-12-19T01:58:55.492Z,67.83
2017-12-19T02:01:22.932Z,66.60
2017-12-19T02:03:51.129Z,71.20
2017-12-19T02:06:18.552Z,70.90
2017-12-19T02:08:46.232Z,74.70
2017-12-19T02:11:14.437Z,89.13
2017-12-19T02:13:41.868Z,60.27
2017-12-19T02:16:10.080Z,117.10
2017-12-19T02:18:37.505Z,83.63
2017-12-19T02:21:04.928Z,89.77
2017-12-19T02:23:32.596Z,73.70
2017-12-19T02:26:00.788Z,78.03
2017-12-19T02:28:28.991Z,69.40
2017-12-19T02:30:56.435Z,70.03
2017-12-19T02:33:23.938Z,62.77
2017-12-19T02:35:52.070Z,75.27
2017-12-19T02:38:19.572Z,91.60
2017-12-19T02:40:47.001Z,67.03
2017-12-19T02:43:20.511Z,76.07
2017-12-19T02:45:52.429Z,79.37
2017-12-19T02:48:19.860Z,71.73
2017-12-19T02:50:47.303Z,71.57
2017-12-19T02:53:14.760Z,56.40
2017-12-19T02:55:42.189Z,88.50
2017-12-19T02:58:09.638Z,84.93
2017-12-19T03:00:37.061Z,53.33
2017-12-19T03:03:05.261Z,69.43
2017-12-19T03:05:33.045Z,62.10
2017-12-19T03:08:00.470Z,66.30
2017-12-19T03:10:27.906Z,70.73
2017-12-19T03:12:56.440Z,61.67
2017-12-19T03:15:23.888Z,53.00
2017-12-19T03:17:51.308Z,75.53
2017-12-19T03:20:19.540Z,64.20
2017-12-19T03:22:46.981Z,58.33
2017-12-19T03:25:14.409Z,56.00
2017-12-19T03:27:41.849Z,68.63
2017-12-19T03:30:10.042Z,66.63
2017-12-19T03:32:38.391Z,67.23
2017-12-19T03:35:06.108Z,93.37
2017-12-19T03:37:33.532Z,62.27
2017-12-19T03:40:01.725Z,49.20
2017-12-19T03:42:29.157Z,62.23
2017-12-19T03:44:57.352Z,86.07
2017-12-19T03:47:24.774Z,62.47
2017-12-19T03:49:52.213Z,87.77
2017-12-19T03:52:19.643Z,72.13
2017-12-19T03:54:47.084Z,59.87
2017-12-19T03:57:15.585Z,85.83
2017-12-19T03:59:43.000Z,96.90
2017-12-19T04:02:11.200Z,52.20
2017-12-19T04:04:38.632Z,82.47
2017-12-19T04:07:06.831Z,68.93
2017-12-19T04:09:34.293Z,80.67
2017-12-19T04:12:02.065Z,53.70
2017-12-19T04:14:29.496Z,67.63
2017-12-19T04:16:56.920Z,59.37
2017-12-19T04:19:24.357Z,65.60
2017-12-19T04:21:51.789Z,68.63
2017-12-19T04:24:19.224Z,60.33
2017-12-19T04:26:46.659Z,87.03
2017-12-19T04:29:14.918Z,65.30
2017-12-19T04:31:42.344Z,50.00
2017-12-19T04:34:10.118Z,67.23
2017-12-19T04:36:38.297Z,61.17
2017-12-19T04:39:05.736Z,56.13
2017-12-19T04:41:33.183Z,54.17
2017-12-19T04:44:00.616Z,62.73
2017-12-19T04:46:28.045Z,83.20
2017-12-19T04:48:55.477Z,76.77
2017-12-19T04:51:22.912Z,79.03
2017-12-19T04:53:50.355Z,73.13
2017-12-19T04:56:18.140Z,70.10
2017-12-19T04:58:45.573Z,71.33
2017-12-19T05:01:13.000Z,74.33
2017-12-19T05:03:41.224Z,77.77
2017-12-19T05:06:08.662Z,55.30
2017-12-19T05:08:36.852Z,69.13
2017-12-19T05:11:04.306Z,74.53
2017-12-19T05:13:31.745Z,65.87
2017-12-19T05:15:59.934Z,79.57
2017-12-19T05:18:27.387Z,77.90
2017-12-19T05:20:54.809Z,54.17
2017-12-19T05:23:23.034Z,68.73
2017-12-19T05:25:50.469Z,60.77
2017-12-19T05:28:17.893Z,55.13
2017-12-19T05:30:45.321Z,77.07
2017-12-19T05:33:13.084Z,52.17
2017-12-19T05:35:40.520Z,56.43
2017-12-19T05:38:07.944Z,59.20
2017-12-19T05:40:36.161Z,52.97
2017-12-19T05:43:03.605Z,61.40
2017-12-19T05:45:31.041Z,56.30
2017-12-19T05:47:58.739Z,69.13
2017-12-19T05:50:26.165Z,66.60
2017-12-19T05:52:53.590Z,69.67
2017-12-19T05:55:21.032Z,67.07
2017-12-19T05:57:48.472Z,59.47
2017-12-19T06:00:15.893Z,68.03
2017-12-19T06:02:43.329Z,68.97
2017-12-19T06:05:11.528Z,59.00
2017-12-19T06:07:38.948Z,99.63
2017-12-19T06:10:06.421Z,69.10
2017-12-19T06:12:34.669Z,81.13
2017-12-19T06:15:02.105Z,83.17
2017-12-19T06:17:29.553Z,90.53
2017-12-19T06:19:56.985Z,61.33
2017-12-19T06:22:24.405Z,71.10
2017-12-19T06:24:51.849Z,79.53
2017-12-19T06:27:19.289Z,61.13
2017-12-19T06:29:46.727Z,67.60
2017-12-19T06:32:14.221Z,74.20
2017-12-19T06:34:41.669Z,74.27
2017-12-19T06:37:09.098Z,64.00
2017-12-19T06:39:36.868Z,69.23
2017-12-19T06:42:04.303Z,93.53
2017-12-19T06:44:31.724Z,100.17
2017-12-19T06:46:59.176Z,75.33
2017-12-19T06:49:26.593Z,71.83
2017-12-19T06:51:54.049Z,77.37
2017-12-19T06:54:21.476Z,67.80
2017-12-19T06:56:48.912Z,73.00
2017-12-19T06:59:16.344Z,84.73
2017-12-19T07:01:43.789Z,72.30
2017-12-19T07:04:11.251Z,68.67
2017-12-19T07:06:38.669Z,71.40
2017-12-19T07:09:06.106Z,52.70
2017-12-19T07:11:34.297Z,72.57
2017-12-19T07:14:01.720Z,57.43
2017-12-19T07:16:29.167Z,55.60
2017-12-19T07:18:56.596Z,60.30
2017-12-19T07:21:24.021Z,48.77
2017-12-19T07:23:51.461Z,58.80
2017-12-19T07:26:19.662Z,58.30
2017-12-19T07:28:47.094Z,59.33
2017-12-19T07:31:14.522Z,61.20
2017-12-19T07:33:41.953Z,58.33
2017-12-19T07:36:09.385Z,64.13
2017-12-19T07:38:36.859Z,58.87
2017-12-19T07:41:04.260Z,47.67
2017-12-19T07:43:31.689Z,63.17
2017-12-19T07:45:59.151Z,46.47
2017-12-19T07:48:26.560Z,53.30
2017-12-19T07:50:53.993Z,56.17
2017-12-19T07:53:21.429Z,56.50
2017-12-19T07:55:48.878Z,51.33
2017-12-19T07:58:16.313Z,55.23
2017-12-19T08:00:43.768Z,51.33
2017-12-19T08:03:11.200Z,52.73
2017-12-19T08:05:38.636Z,47.80
2017-12-19T08:08:06.099Z,51.23
2017-12-19T08:10:34.329Z,62.63
2017-12-19T08:13:01.749Z,55.83
2017-12-19T08:15:29.193Z,49.00
2017-12-19T08:17:57.404Z,59.60
2017-12-19T08:20:24.829Z,50.57
2017-12-19T08:22:53.340Z,54.37
2017-12-19T08:25:20.769Z,40.43
2017-12-19T08:27:48.200Z,52.43
2017-12-19T08:30:15.889Z,47.57
2017-12-19T08:32:44.099Z,41.20
2017-12-19T08:35:11.534Z,58.87
2017-12-19T08:37:38.978Z,34.87
2017-12-19T08:40:07.180Z,44.27
2017-12-19T08:42:34.635Z,36.13
2017-12-19T08:45:02.068Z,40.37
2017-12-19T08:47:29.493Z,44.83
2017-12-19T08:49:56.925Z,50.83
2017-12-19T08:52:24.668Z,42.03
2017-12-19T08:54:52.073Z,43.33
2017-12-19T08:57:20.320Z,37.87
2017-12-19T08:59:47.988Z,30.97
2017-12-19T09:02:15.495Z,36.10
2017-12-19T09:04:42.883Z,33.87
2017-12-19T09:07:10.334Z,35.63
2017-12-19T09:09:37.752Z,37.20
2017-12-19T09:12:05.998Z,28.23
2017-12-19T09:14:33.394Z,29.70
2017-12-19T09:17:01.617Z,36.53
2017-12-19T09:19:29.161Z,37.30
2017-12-19T09:21:56.636Z,34.90
2017-12-19T09:24:24.080Z,33.33
2017-12-19T09:26:51.512Z,31.90
2017-12-19T09:29:18.949Z,34.03
2017-12-19T09:31:47.171Z,35.67
2017-12-19T09:34:14.600Z,36.10
2017-12-19T09:36:42.082Z,25.80
2017-12-19T09:39:09.552Z,33.97
2017-12-19T09:41:36.986Z,32.70
2017-12-19T09:44:04.426Z,35.10
2017-12-19T09:46:31.921Z,36.87
2017-12-19T09:48:59.345Z,33.03
2017-12-19T09:51:26.829Z,20.90
2017-12-19T09:53:54.277Z,30.80
2017-12-19T09:56:21.747Z,43.50
2017-12-19T09:58:49.191Z,21.13
2017-12-19T10:01:16.616Z,25.60
2017-12-19T10:03:44.814Z,32.17
2017-12-19T10:06:12.246Z,27.00
2017-12-19T10:08:40.468Z,24.30
2017-12-19T10:11:07.907Z,25.80
2017-12-19T10:13:35.801Z,26.97
2017-12-19T10:16:03.245Z,24.37
2017-12-19T10:18:30.669Z,32.77
2017-12-19T10:20:58.161Z,19.50
2017-12-19T10:23:25.588Z,23.33
2017-12-19T10:25:53.016Z,38.13
2017-12-19T10:28:21.257Z,29.17
2017-12-19T10:30:48.672Z,20.67
2017-12-19T10:33:16.153Z,29.60
2017-12-19T10:35:43.597Z,18.90
2017-12-19T10:38:11.067Z,31.23
2017-12-19T10:40:38.490Z,29.30
2017-12-19T10:43:05.985Z,26.47
2017-12-19T10:45:33.439Z,31.10
2017-12-19T10:48:00.893Z,24.10
2017-12-19T10:50:28.448Z,27.93
2017-12-19T10:52:55.913Z,30.40
2017-12-19T10:55:23.341Z,19.50
2017-12-19T10:57:50.830Z,21.80
2017-12-19T11:00:18.255Z,25.47
2017-12-19T11:02:45.682Z,22.10
2017-12-19T11:05:13.906Z,18.40
2017-12-19T11:07:41.382Z,26.37
2017-12-19T11:10:08.800Z,28.40
2017-12-19T11:12:36.239Z,22.17
2017-12-19T11:15:04.429Z,20.73
2017-12-19T11:17:31.850Z,25.30
2017-12-19T11:19:59.293Z,15.17
2017-12-19T11:22:26.717Z,19.90
2017-12-19T11:24:54.219Z,26.30
2017-12-19T11:27:21.750Z,23.50
2017-12-19T11:29:49.178Z,21.93
2017-12-19T11:32:16.675Z,25.13
2017-12-19T11:34:44.125Z,28.27
2017-12-19T11:37:11.572Z,24.83
2017-12-19T11:39:39.050Z,26.27
2017-12-19T11:42:06.805Z,22.97
2017-12-19T11:44:34.257Z,19.87
2017-12-19T11:47:01.721Z,15.93
2017-12-19T11:49:29.213Z,20.77
2017-12-19T11:51:56.873Z,23.63
2017-12-19T11:54:24.416Z,25.03
2017-12-19T11:56:52.632Z,29.40
2017-12-19T11:59:20.053Z,27.87
2017-12-19T12:01:48.288Z,26.77
2017-12-19T12:04:15.759Z,17.30
2017-12-19T12:06:43.215Z,23.73
2017-12-19T12:09:10.677Z,23.47
2017-12-19T12:11:38.125Z,24.57
2017-12-19T12:14:05.556Z,20.20
2017-12-19T12:16:32.989Z,29.23
2017-12-19T12:19:00.497Z,24.60
2017-12-19T12:21:27.929Z,38.03
2017-12-19T12:23:55.414Z,24.03
2017-12-19T12:26:22.861Z,25.37
2017-12-19T12:28:50.325Z,27.03
2017-12-19T12:31:17.748Z,24.30
2017-12-19T12:33:45.263Z,25.43
2017-12-19T12:36:12.673Z,24.87
2017-12-19T12:38:40.098Z,26.33
2017-12-19T12:41:08.303Z,23.77
2017-12-19T12:43:35.782Z,21.50
2017-12-19T12:46:03.217Z,29.03
2017-12-19T12:48:30.661Z,24.73
2017-12-19T12:50:58.865Z,30.90
2017-12-19T12:53:26.288Z,30.07
2017-12-19T12:55:54.557Z,28.67
2017-12-19T12:58:22.785Z,30.30
2017-12-19T13:00:50.217Z,24.57
2017-12-19T13:03:17.654Z,20.50
2017-12-19T13:05:45.861Z,29.03
2017-12-19T13:08:13.285Z,22.60
2017-12-19T13:10:41.506Z,26.20
2017-12-19T13:13:08.929Z,33.37
2017-12-19T13:15:36.359Z,34.53
2017-12-19T13:18:04.904Z,27.70
2017-12-19T13:20:32.328Z,29.47
2017-12-19T13:22:59.866Z,29.23
2017-12-19T13:25:28.073Z,29.73
2017-12-19T13:27:55.502Z,24.83
2017-12-19T13:30:23.733Z,37.53
2017-12-19T13:32:51.162Z,28.70
2017-12-19T13:35:18.585Z,22.77
2017-12-19T13:37:46.780Z,26.43
2017-12-19T13:40:14.242Z,26.10
2017-12-19T13:42:41.728Z,28.43
2017-12-19T13:45:09.181Z,31.77
2017-12-19T13:47:36.633Z,30.47
2017-12-19T13:50:04.089Z,32.20
2017-12-19T13:52:31.545Z,29.47
2017-12-19T13:54:59.001Z,32.07
2017-12-19T13:57:26.429Z,29.87
2017-12-19T13:59:53.859Z,36.43
2017-12-19T14:02:22.814Z,33.47
2017-12-19T14:04:50.241Z,30.93
2017-12-19T14:07:17.664Z,25.33
2017-12-19T14:09:45.187Z,29.97
2017-12-19T14:12:12.632Z,25.47
2017-12-19T14:14:40.061Z,27.57
2017-12-19T14:17:08.370Z,29.83
2017-12-19T14:19:35.801Z,35.67
2017-12-19T14:22:03.228Z,28.57
2017-12-19T14:24:32.177Z,33.57
2017-12-19T14:26:59.613Z,23.17
2017-12-19T14:29:27.037Z,23.77
2017-12-19T14:31:56.598Z,32.83
2017-12-19T14:34:24.021Z,24.40
2017-12-19T14:36:51.454Z,26.27
2017-12-19T14:39:19.661Z,33.67
2017-12-19T14:41:47.109Z,31.60
2017-12-19T14:44:14.592Z,32.87
2017-12-19T14:46:42.034Z,26.20
2017-12-19T14:49:09.460Z,27.10
2017-12-19T14:51:37.657Z,23.10
2017-12-19T14:54:05.098Z,27.77
2017-12-19T14:56:33.288Z,29.97
2017-12-19T14:59:00.770Z,27.57
2017-12-19T15:01:28.218Z,26.43
2017-12-19T15:03:55.684Z,25.60
2017-12-19T15:06:23.146Z,20.27
2017-12-19T15:08:50.906Z,34.60
2017-12-19T15:11:18.367Z,34.73
2017-12-19T15:13:45.841Z,33.97
2017-12-19T15:16:13.285Z,33.70
2017-12-19T15:18:40.724Z,33.50
2017-12-19T15:21:08.146Z,28.80
2017-12-19T15:23:35.590Z,39.03
2017-12-19T15:26:03.028Z,26.97
2017-12-19T15:28:30.455Z,37.70
2017-12-19T15:30:57.888Z,23.53
2017-12-19T15:33:25.314Z,28.20
2017-12-19T15:35:52.745Z,37.40
2017-12-19T15:38:20.949Z,38.87
2017-12-19T15:40:49.182Z,34.93
2017-12-19T15:43:16.616Z,42.63
2017-12-19T15:45:44.052Z,29.57
2017-12-19T15:48:12.276Z,33.93
2017-12-19T15:50:39.709Z,34.40
2017-12-19T15:53:07.182Z,32.00
2017-12-19T15:55:34.693Z,34.37
2017-12-19T15:58:02.893Z,35.27
2017-12-19T16:00:30.337Z,27.97
2017-12-19T16:02:58.549Z,35.67
2017-12-19T16:05:26.005Z,38.27
2017-12-19T16:07:53.452Z,35.43
2017-12-19T16:10:20.928Z,37.50
2017-12-19T16:12:48.370Z,40.00
2017-12-19T16:15:15.809Z,34.43
2017-12-19T16:17:43.237Z,31.47
2017-12-19T16:20:11.438Z,34.63
2017-12-19T16:22:38.877Z,37.80
2017-12-19T16:25:07.073Z,36.93
2017-12-19T16:27:34.501Z,36.43
2017-12-19T16:30:02.743Z,36.57
2017-12-19T16:32:30.193Z,44.00
2017-12-19T16:34:57.644Z,42.80
2017-12-19T16:37:25.087Z,37.20
2017-12-19T16:39:52.524Z,47.67
2017-12-19T16:42:19.948Z,44.67
2017-12-19T16:44:48.208Z,42.70
2017-12-19T16:47:15.613Z,49.20
2017-12-19T16:49:43.058Z,38.30
2017-12-19T16:52:10.557Z,48.17
2017-12-19T16:54:37.987Z,55.97
2017-12-19T16:57:05.421Z,58.77
2017-12-19T16:59:33.641Z,51.87
2017-12-19T17:02:01.107Z,53.90
2017-12-19T17:04:28.661Z,41.33
2017-12-19T17:06:56.106Z,49.77
2017-12-19T17:09:23.585Z,49.03
2017-12-19T17:11:51.040Z,48.30
2017-12-19T17:14:18.483Z,41.43
2017-12-19T17:16:45.916Z,54.67
2017-12-19T17:19:13.351Z,45.00
2017-12-19T17:21:41.566Z,42.17
2017-12-19T17:24:09.076Z,43.10
2017-12-19T17:26:36.505Z,52.13
2017-12-19T17:29:03.953Z,48.90
2017-12-19T17:31:31.420Z,51.20
2017-12-19T17:33:58.856Z,45.13
2017-12-19T17:36:26.329Z,59.37
2017-12-19T17:38:53.780Z,50.73
2017-12-19T17:41:21.209Z,47.97
2017-12-19T17:43:48.693Z,49.17
2017-12-19T17:46:16.132Z,55.23
2017-12-19T17:48:43.570Z,54.07
2017-12-19T17:51:11.781Z,58.63
2017-12-19T17:53:39.262Z,53.47
2017-12-19T17:56:06.797Z,53.17
2017-12-19T17:58:34.242Z,49.13
2017-12-19T18:01:02.529Z,60.57
2017-12-19T18:03:30.038Z,57.90
2017-12-19T18:05:58.981Z,58.23
2017-12-19T18:08:26.409Z,55.37
2017-12-19T18:10:53.898Z,59.50
2017-12-19T18:13:21.356Z,51.87
2017-12-19T18:15:48.785Z,63.10
2017-12-19T18:18:16.801Z,54.83
2017-12-19T18:20:44.541Z,55.33
2017-12-19T18:23:12.001Z,55.20
2017-12-19T18:25:39.437Z,55.67
2017-12-19T18:28:06.883Z,56.57
2017-12-19T18:30:34.309Z,50.37
2017-12-19T18:33:01.833Z,52.37
2017-12-19T18:35:29.281Z,57.40
2017-12-19T18:37:56.756Z,53.03
2017-12-19T18:40:24.185Z,60.97
2017-12-19T18:42:51.645Z,62.20
2017-12-19T18:45:19.072Z,47.13
2017-12-19T18:47:47.278Z,51.03
2017-12-19T18:50:14.717Z,47.43
2017-12-19T18:52:42.201Z,54.77
2017-12-19T18:55:09.660Z,58.40
2017-12-19T18:57:37.432Z,53.13
2017-12-19T19:00:04.886Z,50.77
2017-12-19T19:02:32.314Z,57.70
2017-12-19T19:04:59.758Z,59.10
2017-12-19T19:07:27.190Z,62.97
2017-12-19T19:09:56.141Z,55.53
2017-12-19T19:12:23.607Z,57.83
2017-12-19T19:14:51.037Z,59.10
2017-12-19T19:17:18.469Z,62.37
2017-12-19T19:19:46.688Z,52.17
2017-12-19T19:22:14.113Z,66.10
2017-12-19T19:24:41.541Z,55.50
2017-12-19T19:27:09.792Z,72.47
2017-12-19T19:29:37.251Z,58.53
2017-12-19T19:32:04.706Z,59.60
2017-12-19T19:34:32.259Z,63.10
2017-12-19T19:36:59.802Z,68.30
2017-12-19T19:39:27.274Z,60.90
2017-12-19T19:41:54.733Z,82.70
2017-12-19T19:44:22.173Z,70.77
2017-12-19T19:46:49.641Z,75.23
2017-12-19T19:49:20.563Z,75.07
2017-12-19T19:51:48.131Z,59.97
2017-12-19T19:54:15.636Z,66.53
2017-12-19T19:56:43.073Z,77.33
2017-12-19T19:59:10.617Z,78.57
2017-12-19T20:01:38.065Z,70.33
2017-12-19T20:04:05.525Z,70.77
2017-12-19T20:06:32.989Z,72.90
2017-12-19T20:09:00.441Z,58.17
2017-12-19T20:11:27.891Z,66.50
2017-12-19T20:13:55.356Z,61.57
2017-12-19T20:16:22.817Z,86.03
2017-12-19T20:18:50.261Z,64.97
2017-12-19T20:21:17.727Z,62.83
2017-12-19T20:23:46.241Z,59.67
2017-12-19T20:26:13.950Z,57.97
2017-12-19T20:28:41.425Z,67.53
2017-12-19T20:31:08.872Z,53.37
2017-12-19T20:33:36.366Z,53.50
2017-12-19T20:36:03.772Z,56.70
2017-12-19T20:38:31.196Z,56.33
2017-12-19T20:40:58.715Z,55.90
2017-12-19T20:43:26.155Z,62.40
2017-12-19T20:45:53.573Z,55.00
2017-12-19T20:48:21.801Z,58.17
2017-12-19T20:50:49.247Z,51.07
2017-12-19T20:53:16.712Z,61.40
2017-12-19T20:55:44.401Z,64.83
2017-12-19T20:58:12.304Z,64.60
2017-12-19T21:00:41.235Z,58.20
2017-12-19T21:03:08.684Z,55.93
2017-12-19T21:05:36.113Z,63.90
2017-12-19T21:08:04.324Z,72.90
2017-12-19T21:10:32.124Z,60.20
2017-12-19T21:12:59.525Z,74.97
2017-12-19T21:15:27.005Z,75.00
2017-12-19T21:17:54.457Z,63.43
2017-12-19T21:20:21.917Z,63.60
2017-12-19T21:22:49.369Z,74.10
2017-12-19T21:25:16.805Z,77.70
2017-12-19T21:27:44.236Z,69.30
2017-12-19T21:30:11.680Z,78.97
2017-12-19T21:32:39.116Z,60.23
2017-12-19T21:35:06.570Z,65.07
2017-12-19T21:37:35.793Z,70.63
2017-12-19T21:40:03.333Z,73.77
2017-12-19T21:42:30.788Z,59.63
2017-12-19T21:44:58.222Z,64.83
2017-12-19T21:47:25.713Z,55.40
2017-12-19T21:49:53.168Z,56.20
2017-12-19T21:52:20.641Z,61.67
2017-12-19T21:54:48.684Z,54.80
2017-12-19T21:57:16.126Z,60.23
2017-12-19T21:59:43.560Z,59.97
2017-12-19T22:02:11.776Z,49.53
2017-12-19T22:04:39.216Z,54.80
2017-12-19T22:07:06.641Z,68.53
2017-12-19T22:09:34.841Z,52.67
2017-12-19T22:12:02.277Z,57.77
2017-12-19T22:14:30.469Z,56.50
2017-12-19T22:16:58.165Z,60.07
2017-12-19T22:19:25.637Z,56.60
2017-12-19T22:21:53.076Z,53.83
2017-12-19T22:24:20.847Z,56.13
2017-12-19T22:26:48.281Z,54.70
2017-12-19T22:29:15.761Z,57.83
2017-12-19T22:31:43.213Z,51.60
2017-12-19T22:34:10.672Z,68.30
2017-12-19T22:36:38.101Z,64.57
2017-12-19T22:39:05.547Z,61.30
2017-12-19T22:41:33.757Z,52.93
2017-12-19T22:44:01.209Z,60.73
2017-12-19T22:46:28.636Z,54.13
2017-12-19T22:48:56.838Z,57.00
2017-12-19T22:51:24.272Z,47.67
2017-12-19T22:53:51.713Z,48.57
2017-12-19T22:56:20.024Z,56.93
2017-12-19T22:58:49.009Z,64.57
2017-12-19T23:01:16.488Z,54.53
2017-12-19T23:03:43.977Z,57.80
2017-12-19T23:06:11.405Z,50.03
2017-12-19T23:08:38.906Z,50.87
2017-12-19T23:11:06.287Z,49.87
2017-12-19T23:13:34.479Z,38.30
2017-12-19T23:16:01.944Z,58.63
2017-12-19T23:18:29.350Z,52.13
2017-12-19T23:20:57.550Z,50.50
2017-12-19T23:23:25.037Z,49.87
2017-12-19T23:25:52.492Z,64.20
2017-12-19T23:28:19.924Z,47.47
2017-12-19T23:30:47.389Z,47.07
2017-12-19T23:33:14.867Z,46.63
2017-12-19T23:35:42.318Z,46.93
2017-12-19T23:38:09.745Z,47.37
2017-12-19T23:40:37.242Z,48.00
2017-12-19T23:43:04.665Z,49.73
2017-12-19T23:45:32.105Z,42.00
2017-12-19T23:48:00.333Z,44.93
2017-12-19T23:50:27.757Z,47.60
2017-12-19T23:52:55.196Z,56.00
2017-12-19T23:55:23.388Z,54.30
2017-12-19T23:57:50.820Z,42.67
